Time;durP1;ratioP1;P1;durP2;ratioP2;P2;SDS_P1;SDS_P2;PMS_P1;PMS_P2;Temp;Humidity;BMP_temperature;BMP_pressure;BME280_temperature;BME280_humidity;BME280_pressure;Samples;Min_cycle;Max_cycle;Signal;HPM_P1;HPM_P2
2022/05/11 00:01:57;;;;;;;4.28;2.03;;;18.10;57.80;;;;;;9184409;19;20044;-67
2022/05/11 00:05:02;;;;;;;7.57;2.25;;;18.00;58.50;;;;;;9180620;19;20026;-68
2022/05/11 00:08:09;;;;;;;7.38;2.72;;;17.90;58.60;;;;;;9179698;19;20018;-66
2022/05/11 00:11:17;;;;;;;6.35;2.47;;;17.90;58.40;;;;;;9182452;19;20019;-68
2022/05/11 00:14:26;;;;;;;4.25;2.60;;;17.90;59.30;;;;;;9183165;19;20070;-66
2022/05/11 00:17:33;;;;;;;4.80;2.40;;;17.90;59.60;;;;;;9184234;19;20626;-66
2022/05/11 00:20:39;;;;;;;10.73;3.22;;;17.90;59.30;;;;;;9181725;19;20020;-66
2022/05/11 00:23:49;;;;;;;5.03;2.55;;;17.90;59.40;;;;;;9183291;19;20016;-68
2022/05/11 00:27:01;;;;;;;6.18;3.25;;;18.20;59.30;;;;;;9182024;19;20015;-66
2022/05/11 00:30:12;;;;;;;6.38;2.60;;;18.10;59.30;;;;;;9184099;19;20065;-67
2022/05/11 00:33:18;;;;;;;7.20;2.60;;;17.80;59.60;;;;;;9183953;19;20355;-66
2022/05/11 00:36:28;;;;;;;8.27;2.40;;;17.80;60.20;;;;;;9181855;19;20014;-66
2022/05/11 00:39:36;;;;;;;9.07;2.47;;;17.80;60.30;;;;;;9183685;19;20019;-67
2022/05/11 00:42:41;;;;;;;5.63;2.65;;;17.70;60.20;;;;;;9178487;19;20479;-67
2022/05/11 00:45:52;;;;;;;10.25;2.90;;;17.70;60.40;;;;;;9183156;19;20018;-67
2022/05/11 00:52:32;;;;;;;5.30;2.70;;;17.50;60.20;;;;;;9180409;19;20011;-70
2022/05/11 00:55:40;;;;;;;5.53;2.50;;;17.70;60.10;;;;;;9180263;19;20019;-67
2022/05/11 00:58:52;;;;;;;3.75;2.15;;;17.70;60.40;;;;;;9180787;19;20011;-66
2022/05/11 01:02:04;;;;;;;6.95;2.78;;;17.60;60.50;;;;;;9179401;19;20476;-66
2022/05/11 01:05:14;;;;;;;6.43;2.70;;;17.60;60.90;;;;;;9178718;19;20043;-68
2022/05/11 01:08:25;;;;;;;6.70;2.70;;;17.60;60.70;;;;;;9178827;19;20015;-66
2022/05/11 01:11:31;;;;;;;6.55;2.50;;;17.50;60.90;;;;;;9179889;19;20589;-67
2022/05/11 01:14:41;;;;;;;6.90;2.30;;;17.60;61.10;;;;;;9179910;19;20027;-67
2022/05/11 01:17:50;;;;;;;7.07;2.67;;;17.50;61.10;;;;;;9181223;19;20062;-67
2022/05/11 01:20:55;;;;;;;7.50;2.90;;;17.50;61.00;;;;;;9179791;19;20381;-67
2022/05/11 01:24:25;;;;;;;8.18;2.85;;;17.50;61.00;;;;;;9180478;19;20010;-67
2022/05/11 01:27:36;;;;;;;6.60;2.55;;;17.50;60.80;;;;;;9180691;19;20365;-67
2022/05/11 01:30:48;;;;;;;6.65;3.08;;;17.40;61.20;;;;;;9179312;19;20018;-67
2022/05/11 01:33:54;;;;;;;6.93;2.25;;;17.50;61.70;;;;;;9178455;19;20064;-67
2022/05/11 01:36:59;;;;;;;10.35;3.33;;;17.40;61.80;;;;;;9180143;19;20019;-68
2022/05/11 01:40:08;;;;;;;11.38;2.85;;;17.40;61.30;;;;;;9179990;19;20014;-67
2022/05/11 01:43:21;;;;;;;8.05;2.50;;;17.40;61.60;;;;;;9176054;19;20014;-68
2022/05/11 01:46:27;;;;;;;8.43;2.85;;;17.40;61.80;;;;;;9178976;19;20019;-66
2022/05/11 01:49:32;;;;;;;5.13;3.00;;;17.40;61.90;;;;;;9176867;19;20023;-67
2022/05/11 01:52:43;;;;;;;7.10;2.78;;;17.40;62.00;;;;;;9181058;19;20018;-67
2022/05/11 01:55:53;;;;;;;4.57;2.42;;;17.40;61.90;;;;;;9178902;19;20019;-67
2022/05/11 01:58:58;;;;;;;9.07;3.42;;;17.40;62.40;;;;;;9180494;19;20017;-67
2022/05/11 02:02:03;;;;;;;8.68;3.28;;;17.40;62.30;;;;;;9178198;19;20011;-67
2022/05/11 02:08:31;;;;;;;5.03;2.90;;;17.30;62.30;;;;;;9178787;19;20011;-67
2022/05/11 02:11:41;;;;;;;5.70;3.15;;;17.30;62.40;;;;;;9179461;19;20026;-67
2022/05/11 02:14:47;;;;;;;6.85;3.17;;;17.30;63.00;;;;;;9177697;19;20085;-66
2022/05/11 02:17:53;;;;;;;4.75;3.42;;;17.30;62.30;;;;;;9180931;19;20018;-68
2022/05/11 02:21:00;;;;;;;6.78;3.03;;;17.30;62.90;;;;;;9178688;19;20090;-67
2022/05/11 02:24:06;;;;;;;8.52;3.45;;;17.40;62.90;;;;;;9177602;19;20411;-66
2022/05/11 02:27:14;;;;;;;7.13;3.58;;;17.30;62.70;;;;;;9180570;19;20018;-67
2022/05/11 02:30:21;;;;;;;9.00;3.70;;;17.30;63.10;;;;;;9180987;19;20460;-66
2022/05/11 02:33:27;;;;;;;7.07;3.15;;;17.30;62.90;;;;;;9187718;19;20408;-69
2022/05/11 02:36:32;;;;;;;5.60;3.50;;;17.30;62.80;;;;;;9188782;19;20456;-67
2022/05/11 02:39:37;;;;;;;6.60;3.78;;;17.30;63.40;;;;;;9185640;19;20023;-68
2022/05/11 02:42:45;;;;;;;9.45;3.42;;;17.20;63.10;;;;;;9184809;19;20019;-67
2022/05/11 02:45:52;;;;;;;7.43;3.83;;;17.30;63.50;;;;;;9188925;19;20011;-68
2022/05/11 02:48:57;;;;;;;8.75;4.15;;;17.20;63.20;;;;;;9186304;19;20026;-67
2022/05/11 02:52:04;;;;;;;7.25;3.97;;;17.30;63.60;;;;;;9187733;19;20090;-66
2022/05/11 02:55:12;;;;;;;5.78;3.50;;;17.20;63.70;;;;;;9186218;19;20102;-68
2022/05/11 02:58:24;;;;;;;6.32;3.58;;;17.20;63.50;;;;;;9184120;19;20027;-67
2022/05/11 03:01:29;;;;;;;8.60;4.03;;;17.20;63.80;;;;;;9185030;19;20377;-66
2022/05/11 03:04:34;;;;;;;11.38;4.22;;;17.20;64.00;;;;;;9185179;19;20439;-68
2022/05/11 03:07:39;;;;;;;8.10;3.78;;;17.20;64.20;;;;;;9184626;19;20010;-67
2022/05/11 03:10:45;;;;;;;10.02;3.85;;;17.20;64.00;;;;;;9184261;19;20468;-66
2022/05/11 03:13:53;;;;;;;8.32;3.75;;;17.10;64.00;;;;;;9184939;19;20027;-67
2022/05/11 03:17:04;;;;;;;6.10;3.60;;;17.10;64.30;;;;;;9184463;19;20365;-67
2022/05/11 03:20:13;;;;;;;5.70;3.67;;;17.10;64.00;;;;;;9183959;19;20484;-67
2022/05/11 03:23:21;;;;;;;9.70;3.67;;;17.10;64.30;;;;;;9184454;19;20479;-66
2022/05/11 03:26:34;;;;;;;8.68;4.38;;;17.10;64.40;;;;;;9184591;19;20014;-66
2022/05/11 03:29:41;;;;;;;6.97;4.25;;;17.10;64.80;;;;;;9181911;19;20021;-66
2022/05/11 03:36:05;;;;;;;8.73;4.55;;;16.90;64.40;;;;;;9185718;19;20043;-67
2022/05/11 03:39:10;;;;;;;7.45;4.38;;;17.10;64.70;;;;;;9183177;19;20014;-67
2022/05/11 03:42:18;;;;;;;7.85;4.63;;;17.00;64.70;;;;;;9182532;19;20015;-69
2022/05/11 03:45:28;;;;;;;6.60;4.28;;;17.00;64.80;;;;;;9183716;19;20028;-67
2022/05/11 03:48:38;;;;;;;9.82;4.93;;;17.00;65.20;;;;;;9184459;19;20018;-66
2022/05/11 03:51:44;;;;;;;4.93;3.85;;;17.00;64.70;;;;;;9184283;19;20101;-67
2022/05/11 03:54:49;;;;;;;7.82;4.43;;;17.00;64.70;;;;;;9181131;19;20015;-67
2022/05/11 03:57:54;;;;;;;8.75;4.53;;;17.00;64.70;;;;;;9182097;19;20010;-66
2022/05/11 04:01:02;;;;;;;8.85;4.60;;;17.00;65.00;;;;;;9184770;19;20006;-67
2022/05/11 04:04:07;;;;;;;9.68;5.07;;;17.00;65.50;;;;;;9182428;19;20003;-67
2022/05/11 04:07:12;;;;;;;7.43;4.70;;;17.00;65.20;;;;;;9185207;19;20028;-66
2022/05/11 04:10:20;;;;;;;7.75;4.70;;;17.00;65.10;;;;;;9182060;19;20023;-66
2022/05/11 04:13:25;;;;;;;8.82;4.88;;;17.00;65.30;;;;;;9183394;19;20033;-65
2022/05/11 04:16:35;;;;;;;7.15;4.18;;;17.00;65.40;;;;;;9184745;19;20037;-67
2022/05/11 04:19:41;;;;;;;9.13;5.05;;;17.00;65.50;;;;;;9184007;19;20011;-66
2022/05/11 04:22:46;;;;;;;9.05;4.95;;;17.00;66.00;;;;;;9181891;19;20010;-69
2022/05/11 04:25:51;;;;;;;8.35;4.72;;;17.00;65.30;;;;;;9183879;19;20022;-67
2022/05/11 04:28:59;;;;;;;8.27;5.10;;;17.50;66.10;;;;;;9184005;19;20654;-67
2022/05/11 04:32:08;;;;;;;12.73;5.55;;;17.00;65.70;;;;;;9183840;19;20090;-67
2022/05/11 04:35:13;;;;;;;8.40;5.22;;;17.00;65.50;;;;;;9183267;19;20033;-65
2022/05/11 04:38:18;;;;;;;8.88;4.47;;;17.00;65.90;;;;;;9182946;19;20361;-66
2022/05/11 04:41:24;;;;;;;8.13;4.75;;;17.00;65.60;;;;;;9183403;19;20716;-66
2022/05/11 04:44:32;;;;;;;7.97;5.07;;;17.00;66.10;;;;;;9177275;19;20074;-66
2022/05/11 04:47:40;;;;;;;8.93;4.60;;;16.90;66.30;;;;;;9181052;19;20103;-66
2022/05/11 04:50:47;;;;;;;11.93;5.22;;;16.90;66.10;;;;;;9179917;19;20369;-66
2022/05/11 04:53:52;;;;;;;9.85;4.63;;;16.70;66.00;;;;;;9181907;19;20089;-66
2022/05/11 04:57:00;;;;;;;16.88;5.38;;;16.90;65.80;;;;;;9181144;19;20015;-66
2022/05/11 05:00:09;;;;;;;10.35;5.32;;;16.90;66.00;;;;;;9182079;19;20013;-69
2022/05/11 05:03:18;;;;;;;10.23;4.72;;;16.90;65.90;;;;;;9182651;19;20010;-67
2022/05/11 05:06:23;;;;;;;11.30;4.95;;;16.90;66.10;;;;;;9182007;19;20088;-66
2022/05/11 05:09:30;;;;;;;11.35;5.10;;;16.90;66.20;;;;;;9181757;19;20018;-67
2022/05/11 05:12:36;;;;;;;15.38;5.65;;;16.90;66.30;;;;;;9181346;19;20026;-67
2022/05/11 05:15:45;;;;;;;12.85;5.35;;;16.90;66.40;;;;;;9181097;19;20056;-68
2022/05/11 05:18:53;;;;;;;9.27;5.00;;;16.90;66.80;;;;;;9182150;19;20524;-67
2022/05/11 05:22:02;;;;;;;12.73;5.20;;;16.90;66.40;;;;;;9179475;19;20053;-67
2022/05/11 05:25:08;;;;;;;10.32;5.45;;;16.90;66.30;;;;;;9180610;19;20096;-67
2022/05/11 05:31:34;;;;;;;9.80;5.07;;;17.00;66.20;;;;;;9178540;19;20034;-68
2022/05/11 05:34:48;;;;;;;12.93;5.57;;;17.00;66.30;;;;;;9180602;19;20040;-67
2022/05/11 05:37:55;;;;;;;12.75;5.50;;;17.00;66.70;;;;;;9180682;19;20482;-66
2022/05/11 05:41:02;;;;;;;13.45;6.05;;;17.10;66.80;;;;;;9179627;19;20499;-68
2022/05/11 05:44:08;;;;;;;11.00;5.75;;;17.10;66.90;;;;;;9178090;19;20011;-65
2022/05/11 05:47:16;;;;;;;16.75;5.35;;;17.10;67.10;;;;;;9181512;19;20015;-65
2022/05/11 05:50:25;;;;;;;13.93;4.97;;;17.20;66.90;;;;;;9180560;19;20372;-67
2022/05/11 05:53:39;;;;;;;12.43;5.30;;;17.20;66.50;;;;;;9180401;19;20026;-67
2022/05/11 05:56:44;;;;;;;12.43;5.10;;;17.30;67.10;;;;;;9178873;19;20027;-68
2022/05/11 05:59:49;;;;;;;12.75;4.80;;;17.30;67.20;;;;;;9179639;19;20014;-66
2022/05/11 06:02:56;;;;;;;9.15;4.90;;;17.30;66.70;;;;;;9179490;19;20456;-66
2022/05/11 06:06:04;;;;;;;7.07;4.78;;;17.30;66.70;;;;;;9185282;19;20053;-66
2022/05/11 06:09:10;;;;;;;10.73;4.88;;;17.40;66.70;;;;;;9189457;19;20368;-66
2022/05/11 06:12:22;;;;;;;13.70;4.53;;;17.40;66.60;;;;;;9179189;19;20014;-67
2022/05/11 06:15:28;;;;;;;10.57;4.25;;;17.40;66.40;;;;;;9183399;19;20460;-69
2022/05/11 06:18:35;;;;;;;13.50;4.30;;;17.50;66.40;;;;;;9178567;19;20019;-68
2022/05/11 06:21:42;;;;;;;12.00;4.70;;;17.50;66.70;;;;;;9178293;19;20268;-67
2022/05/11 06:24:48;;;;;;;8.48;4.05;;;17.50;66.70;;;;;;9177434;19;20026;-69
2022/05/11 06:27:53;;;;;;;5.85;4.00;;;17.50;66.40;;;;;;9176870;19;20022;-67
2022/05/11 06:30:58;;;;;;;10.68;3.70;;;17.60;65.90;;;;;;9179035;19;20086;-67
2022/05/11 06:34:04;;;;;;;10.57;3.90;;;17.60;66.10;;;;;;9180616;19;20018;-67
2022/05/11 06:37:11;;;;;;;10.05;3.80;;;17.60;65.90;;;;;;9180096;19;20028;-68
2022/05/11 06:40:18;;;;;;;9.80;3.40;;;17.80;66.30;;;;;;9174660;19;20006;-68
2022/05/11 06:43:24;;;;;;;7.40;3.38;;;17.80;66.20;;;;;;9173387;19;20032;-66
2022/05/11 06:46:32;;;;;;;14.00;3.85;;;17.80;65.90;;;;;;9185162;19;20019;-68
2022/05/11 06:49:37;;;;;;;9.30;3.67;;;17.80;66.20;;;;;;9187345;19;20030;-66
2022/05/11 06:52:45;;;;;;;6.03;3.72;;;17.80;65.60;;;;;;9182736;19;20010;-67
2022/05/11 07:02:28;;;;;;;5.70;2.95;;;18.10;65.60;;;;;;9187474;19;20018;-66
2022/05/11 07:05:37;;;;;;;5.97;2.72;;;18.10;65.30;;;;;;9183175;19;20058;-67
2022/05/11 07:08:46;;;;;;;11.95;3.40;;;18.30;65.50;;;;;;9185564;19;20100;-70
2022/05/11 07:15:13;;;;;;;7.00;2.97;;;18.40;65.30;;;;;;9187580;19;20017;-66
2022/05/11 07:18:26;;;;;;;6.97;2.75;;;18.50;65.10;;;;;;9185895;19;20007;-67
2022/05/11 07:21:31;;;;;;;6.50;2.83;;;18.80;65.30;;;;;;9185124;19;20055;-67
2022/05/11 07:24:42;;;;;;;9.15;2.08;;;18.80;64.30;;;;;;9186202;19;20029;-66
2022/05/11 07:27:51;;;;;;;6.72;2.00;;;19.00;64.60;;;;;;9185223;19;20025;-66
2022/05/11 07:31:01;;;;;;;8.07;2.33;;;19.20;63.60;;;;;;9183355;19;20030;-66
2022/05/11 07:34:07;;;;;;;6.22;2.28;;;19.40;63.40;;;;;;9186698;19;20082;-67
2022/05/11 07:37:14;;;;;;;7.13;1.90;;;19.60;63.40;;;;;;9183685;19;20078;-67
2022/05/11 07:40:23;;;;;;;7.75;2.58;;;19.80;62.90;;;;;;9184620;19;20014;-67
2022/05/11 07:43:31;;;;;;;6.47;1.92;;;20.00;62.40;;;;;;9180238;19;20085;-66
2022/05/11 07:46:36;;;;;;;5.68;1.92;;;20.20;62.30;;;;;;9184381;19;20093;-67
2022/05/11 07:49:42;;;;;;;7.82;2.10;;;20.40;62.10;;;;;;9184793;19;20018;-67
2022/05/11 07:52:48;;;;;;;16.02;2.28;;;20.60;62.10;;;;;;9182217;19;20427;-66
2022/05/11 08:02:36;;;;;;;8.00;2.10;;;21.20;60.40;;;;;;9183689;19;20106;-67
2022/05/11 08:05:44;;;;;;;4.32;2.05;;;21.30;59.90;;;;;;9181348;19;20086;-67
2022/05/11 08:08:58;;;;;;;7.88;2.38;;;21.80;59.80;;;;;;9184136;19;20045;-68
2022/05/11 08:12:09;;;;;;;5.28;1.90;;;21.50;59.40;;;;;;9180807;19;20018;-67
2022/05/11 08:15:19;;;;;;;11.43;2.45;;;21.80;59.70;;;;;;9184867;19;20459;-67
2022/05/11 08:18:29;;;;;;;6.43;1.92;;;21.90;59.80;;;;;;9182997;19;20044;-68
2022/05/11 08:21:36;;;;;;;6.85;2.15;;;22.10;59.00;;;;;;9182649;19;20049;-67
2022/05/11 08:24:46;;;;;;;7.53;1.83;;;22.10;58.50;;;;;;9180316;19;20022;-66
2022/05/11 08:27:55;;;;;;;3.35;1.30;;;22.20;58.60;;;;;;9182139;19;20014;-67
2022/05/11 08:34:18;;;;;;;6.70;1.60;;;22.30;58.00;;;;;;9183375;19;20045;-66
2022/05/11 08:37:23;;;;;;;5.90;1.48;;;22.40;58.00;;;;;;9184206;19;20018;-66
2022/05/11 08:40:35;;;;;;;9.70;1.60;;;22.40;57.20;;;;;;9182007;19;20086;-68
2022/05/11 08:43:47;;;;;;;17.88;2.25;;;22.60;57.30;;;;;;9177457;19;20026;-67
2022/05/11 08:47:02;;;;;;;6.25;1.30;;;22.60;57.10;;;;;;9181506;19;20014;-67
2022/05/11 08:50:12;;;;;;;4.47;1.45;;;22.80;56.90;;;;;;9181159;19;20022;-67
2022/05/11 08:53:33;;;;;;;15.60;1.90;;;22.80;56.60;;;;;;9179703;19;20019;-67
2022/05/11 08:56:39;;;;;;;6.18;1.50;;;23.00;56.40;;;;;;9181608;19;20369;-67
2022/05/11 08:59:56;;;;;;;10.13;1.15;;;23.00;56.40;;;;;;9177646;19;20820;-67
2022/05/11 09:03:12;;;;;;;5.50;1.17;;;23.10;55.70;;;;;;9178792;19;20025;-66
2022/05/11 09:06:24;;;;;;;9.05;1.30;;;23.10;55.90;;;;;;9177322;19;20111;-66
2022/05/11 09:09:30;;;;;;;9.05;1.90;;;23.20;55.80;;;;;;9176702;19;20034;-66
2022/05/11 09:12:45;;;;;;;6.13;1.17;;;23.40;55.90;;;;;;9175222;19;20033;-67
2022/05/11 09:16:02;;;;;;;5.15;1.30;;;23.50;55.40;;;;;;9176854;19;20014;-67
2022/05/11 09:19:17;;;;;;;8.90;1.10;;;23.60;55.20;;;;;;9177864;19;20350;-68
2022/05/11 09:22:29;;;;;;;9.15;2.03;;;23.80;55.00;;;;;;9175475;19;20033;-66
2022/05/11 09:26:02;;;;;;;6.57;1.88;;;23.90;55.30;;;;;;9180396;19;20653;-66
2022/05/11 09:29:19;;;;;;;5.78;1.30;;;24.10;54.60;;;;;;9181432;19;20019;-67
2022/05/11 09:32:44;;;;;;;6.40;1.42;;;24.20;54.50;;;;;;9179982;19;20044;-68
2022/05/11 09:35:49;;;;;;;14.77;1.75;;;24.40;54.30;;;;;;9182130;19;20011;-67
2022/05/11 09:39:15;;;;;;;10.00;1.85;;;24.50;54.10;;;;;;9184661;19;20108;-66
2022/05/11 09:42:29;;;;;;;5.07;1.58;;;24.70;54.10;;;;;;9187482;19;20019;-67
2022/05/11 09:45:40;;;;;;;;;;;24.80;53.60;;;;;;9192198;19;20022;-72
2022/05/11 09:49:01;;;;;;;5.43;1.30;;;24.80;53.60;;;;;;9191016;19;19917;-72
2022/05/11 09:52:08;;;;;;;10.43;1.55;;;24.90;53.10;;;;;;9189517;19;20018;-72
2022/05/11 09:55:20;;;;;;;10.88;1.88;;;25.00;53.20;;;;;;9191028;19;20014;-72
2022/05/11 09:58:31;;;;;;;6.65;1.70;;;25.10;52.90;;;;;;9192618;19;20049;-72
2022/05/11 10:01:36;;;;;;;13.45;1.98;;;25.10;52.60;;;;;;9192480;19;20494;-72
2022/05/11 10:04:51;;;;;;;4.90;1.48;;;25.10;52.60;;;;;;9190435;19;20015;-71
2022/05/11 10:08:01;;;;;;;9.95;2.10;;;25.20;52.40;;;;;;9188412;19;20496;-72
2022/05/11 10:11:11;;;;;;;4.55;1.38;;;25.20;52.20;;;;;;9188672;19;20018;-72
2022/05/11 10:24:39;;;;;;;4.32;1.85;;;25.40;51.90;;;;;;9186437;19;20077;-72
2022/05/11 10:27:47;;;;;;;5.80;1.60;;;25.50;51.70;;;;;;9186367;19;20702;-71
2022/05/11 10:31:05;;;;;;;3.28;1.42;;;25.60;51.90;;;;;;9189799;19;20489;-71
2022/05/11 10:34:20;;;;;;;5.50;1.67;;;25.60;51.70;;;;;;9187864;19;20010;-71
2022/05/11 10:37:34;;;;;;;6.85;1.60;;;25.80;51.50;;;;;;9185570;19;20018;-71
2022/05/11 10:40:49;;;;;;;5.63;1.73;;;25.80;51.40;;;;;;9185804;19;20474;-69
2022/05/11 10:44:02;;;;;;;10.80;2.35;;;25.80;51.30;;;;;;9179713;19;20022;-68
2022/05/11 10:47:16;;;;;;;10.35;2.08;;;25.90;51.10;;;;;;9183607;19;20017;-69
2022/05/11 10:50:26;;;;;;;10.45;2.10;;;26.10;51.10;;;;;;9180163;19;20019;-68
2022/05/11 10:53:42;;;;;;;3.75;1.60;;;26.00;50.90;;;;;;9181041;19;20029;-68
2022/05/11 10:56:54;;;;;;;4.15;1.60;;;26.10;50.40;;;;;;9182537;19;20093;-68
2022/05/11 11:00:08;;;;;;;8.27;2.40;;;26.20;50.70;;;;;;9183744;19;20018;-68
2022/05/11 11:03:37;;;;;;;7.13;2.00;;;26.30;50.40;;;;;;9183650;19;20387;-68
2022/05/11 11:10:39;;;;;;;12.55;2.55;;;26.30;49.90;;;;;;9187597;19;20006;-68
2022/05/11 11:13:53;;;;;;;9.10;1.85;;;26.40;50.10;;;;;;9183859;19;20022;-69
2022/05/11 11:16:59;;;;;;;17.42;2.65;;;26.40;50.20;;;;;;9185599;19;20010;-67
2022/05/11 11:20:08;;;;;;;18.52;2.45;;;26.40;50.40;;;;;;9185684;19;20486;-68
2022/05/11 11:23:31;;;;;;;8.52;1.77;;;26.40;49.60;;;;;;9185080;19;20718;-68
2022/05/11 11:26:54;;;;;;;16.23;2.50;;;26.30;49.10;;;;;;9184925;19;20016;-68
2022/05/11 11:30:22;;;;;;;8.73;1.67;;;26.40;49.30;;;;;;9179740;19;20029;-68
2022/05/11 11:33:28;;;;;;;9.18;1.55;;;26.40;48.40;;;;;;9177699;19;20345;-68
2022/05/11 11:36:37;;;;;;;8.88;2.10;;;26.40;49.10;;;;;;9178885;19;20052;-67
2022/05/11 11:39:54;;;;;;;6.20;1.80;;;26.40;49.10;;;;;;9180152;19;20017;-69
2022/05/11 11:43:38;;;;;;;6.88;1.52;;;26.40;48.40;;;;;;9181963;19;20011;-65
2022/05/11 11:46:33;;;;;;;13.55;2.22;;;26.50;48.60;;;;;;9184433;19;20026;-64
2022/05/11 11:49:47;;;;;;;7.80;1.90;;;26.50;47.90;;;;;;9179873;19;20057;-66
2022/05/11 11:53:21;;;;;;;9.32;1.98;;;26.50;48.10;;;;;;9179689;19;20353;-67
2022/05/11 11:56:40;;;;;;;;;;;26.50;48.00;;;;;;9180363;19;20018;-66
2022/05/11 11:59:54;;;;;;;;;;;26.60;48.40;;;;;;9179717;19;20241;-65
2022/05/11 12:03:04;;;;;;;6.47;1.60;;;26.70;49.40;;;;;;9178448;19;19919;-68
2022/05/11 12:16:26;;;;;;;7.68;1.40;;;26.70;47.90;;;;;;9177203;19;20074;-67
2022/05/11 12:19:37;;;;;;;3.40;1.20;;;26.70;47.60;;;;;;9179310;19;20029;-68
2022/05/11 12:22:47;;;;;;;7.90;1.63;;;26.80;47.20;;;;;;9180845;19;20010;-69
2022/05/11 12:25:55;;;;;;;6.82;1.35;;;26.90;47.10;;;;;;9182244;19;20030;-69
2022/05/11 12:29:54;;;;;;;4.88;1.40;;;26.90;46.80;;;;;;9184327;19;20021;-70
2022/05/11 12:32:36;;;;;;;8.90;1.35;;;26.90;46.50;;;;;;9183654;19;20491;-67
2022/05/11 12:35:49;;;;;;;5.65;1.60;;;26.90;46.20;;;;;;9182951;19;20045;-68
2022/05/11 12:38:54;;;;;;;7.90;1.58;;;27.00;46.40;;;;;;9181763;19;20042;-68
2022/05/11 12:42:00;;;;;;;8.88;1.65;;;27.00;46.00;;;;;;9177183;19;20352;-68
2022/05/11 12:45:09;;;;;;;5.65;1.30;;;27.00;46.10;;;;;;9181264;19;20015;-67
2022/05/11 12:48:24;;;;;;;3.85;1.25;;;27.00;45.80;;;;;;9173354;19;20014;-69
2022/05/11 12:51:33;;;;;;;4.15;1.17;;;27.00;45.60;;;;;;9174242;19;20019;-69
2022/05/11 12:54:38;;;;;;;7.18;1.17;;;27.00;45.60;;;;;;9171970;19;20014;-69
2022/05/11 12:57:46;;;;;;;8.40;1.52;;;27.00;45.10;;;;;;9171042;19;20653;-69
2022/05/11 13:01:01;;;;;;;3.38;1.52;;;27.00;45.30;;;;;;9171740;19;20606;-70
2022/05/11 13:04:31;;;;;;;3.90;1.25;;;27.00;45.20;;;;;;9175537;19;20011;-70
2022/05/11 13:07:41;;;;;;;14.73;1.80;;;27.10;45.00;;;;;;9180261;19;20026;-72
2022/05/11 13:10:48;;;;;;;9.35;1.40;;;27.20;45.30;;;;;;9179057;19;20018;-71
2022/05/11 13:13:59;;;;;;;5.72;1.50;;;27.10;45.00;;;;;;9176295;19;20021;-70
2022/05/11 13:17:09;;;;;;;5.20;1.75;;;27.20;45.00;;;;;;9178901;19;20510;-70
2022/05/11 13:20:26;;;;;;;9.45;1.35;;;27.20;44.60;;;;;;9181825;19;20022;-71
2022/05/11 13:23:35;;;;;;;7.30;1.42;;;27.20;44.70;;;;;;9178156;19;20013;-69
2022/05/11 13:26:43;;;;;;;12.07;1.80;;;27.10;44.60;;;;;;9179820;19;20022;-68
2022/05/11 13:29:48;;;;;;;4.18;1.45;;;27.20;44.40;;;;;;9177709;19;20046;-71
2022/05/11 13:32:56;;;;;;;8.82;1.67;;;27.10;44.80;;;;;;9176618;19;20025;-69
2022/05/11 13:36:14;;;;;;;11.98;1.92;;;27.20;44.60;;;;;;9178508;19;20013;-70
2022/05/11 13:39:31;;;;;;;12.90;1.70;;;27.20;44.80;;;;;;9179620;19;20393;-70
2022/05/11 13:42:36;;;;;;;9.18;1.92;;;27.20;44.90;;;;;;9171507;19;20010;-69
2022/05/11 13:45:55;;;;;;;8.52;1.95;;;27.20;44.90;;;;;;9172695;19;20024;-68
2022/05/11 13:49:22;;;;;;;15.57;2.35;;;27.20;44.70;;;;;;9178257;19;20025;-70
2022/05/11 13:52:56;;;;;;;9.82;2.20;;;27.20;44.40;;;;;;9175999;19;20032;-70
2022/05/11 13:56:06;;;;;;;5.97;2.17;;;27.20;45.00;;;;;;9173172;19;20018;-68
2022/05/11 13:59:16;;;;;;;10.63;2.17;;;27.00;44.90;;;;;;9171648;19;20025;-69
2022/05/11 14:02:21;;;;;;;12.88;1.90;;;27.20;45.20;;;;;;9174509;19;20023;-67
2022/05/11 14:05:32;;;;;;;8.05;2.00;;;27.20;45.10;;;;;;9172528;19;20007;-67
2022/05/11 14:08:45;;;;;;;8.15;1.95;;;27.10;45.30;;;;;;9174726;19;20018;-70
2022/05/11 14:11:50;;;;;;;5.50;1.80;;;27.20;44.90;;;;;;9175918;19;20499;-68
2022/05/11 14:14:55;;;;;;;8.45;1.50;;;27.10;45.10;;;;;;9173780;19;20491;-70
2022/05/11 14:18:03;;;;;;;6.63;1.90;;;27.10;45.80;;;;;;9175285;19;20646;-68
2022/05/11 14:21:10;;;;;;;7.72;1.90;;;27.00;45.50;;;;;;9173929;19;20022;-70
2022/05/11 14:24:19;;;;;;;10.18;2.03;;;26.90;45.30;;;;;;9174297;19;20022;-69
2022/05/11 14:27:24;;;;;;;12.65;2.13;;;26.90;45.70;;;;;;9182157;19;20015;-68
2022/05/11 14:30:29;;;;;;;13.02;2.25;;;26.80;45.40;;;;;;9182842;19;20018;-68
2022/05/11 14:33:34;;;;;;;10.75;2.38;;;26.70;45.20;;;;;;9182887;19;20014;-68
2022/05/11 14:36:40;;;;;;;9.73;1.60;;;26.60;45.30;;;;;;9182106;19;20356;-69
2022/05/11 14:39:51;;;;;;;10.98;2.28;;;26.50;45.50;;;;;;9183225;19;20011;-69
2022/05/11 14:42:58;;;;;;;5.40;1.98;;;26.40;45.10;;;;;;9179184;19;20026;-68
2022/05/11 14:46:08;;;;;;;8.95;2.15;;;26.30;45.60;;;;;;9184678;19;20018;-69
2022/05/11 14:49:16;;;;;;;15.77;2.25;;;26.30;45.30;;;;;;9178736;19;20014;-69
2022/05/11 14:52:22;;;;;;;9.95;1.73;;;26.40;45.70;;;;;;9180426;19;20018;-68
2022/05/11 14:55:31;;;;;;;8.73;2.53;;;26.00;45.70;;;;;;9177340;19;20015;-68
2022/05/11 15:02:00;;;;;;;6.32;1.83;;;26.80;46.50;;;;;;9180504;19;20019;-69
2022/05/11 15:05:15;;;;;;;10.32;2.28;;;25.90;45.80;;;;;;9180717;19;20030;-69
2022/05/11 15:08:23;;;;;;;7.13;2.13;;;25.80;46.30;;;;;;9181487;19;20018;-68
2022/05/11 15:14:52;;;;;;;16.08;2.53;;;25.70;46.60;;;;;;9174431;19;20021;-67
2022/05/11 15:17:59;;;;;;;11.10;2.20;;;25.60;46.30;;;;;;9172877;19;20823;-69
2022/05/11 15:21:08;;;;;;;7.53;1.90;;;25.50;45.90;;;;;;9174536;19;20526;-70
2022/05/11 15:24:13;;;;;;;9.65;2.15;;;25.40;46.10;;;;;;9177515;19;20018;-69
2022/05/11 15:27:20;;;;;;;5.85;1.88;;;25.30;46.50;;;;;;9170920;19;20029;-70
2022/05/11 15:30:26;;;;;;;11.85;2.20;;;25.30;46.50;;;;;;9173124;19;20018;-69
2022/05/11 15:33:33;;;;;;;14.20;2.60;;;25.30;46.90;;;;;;9175291;19;20014;-70
2022/05/11 15:36:38;;;;;;;9.77;2.30;;;25.20;46.90;;;;;;9170744;19;20027;-69
2022/05/11 15:39:46;;;;;;;14.30;4.45;;;25.20;46.40;;;;;;9180540;19;20442;-68
2022/05/11 15:42:54;;;;;;;8.48;2.65;;;25.20;46.80;;;;;;9180840;19;20010;-69
2022/05/11 15:46:19;;;;;;;10.13;2.25;;;25.20;46.70;;;;;;9186741;19;20018;-70
2022/05/11 15:49:24;;;;;;;10.00;2.42;;;25.10;46.90;;;;;;9184999;19;20092;-68
2022/05/11 15:52:32;;;;;;;10.60;2.25;;;25.10;46.70;;;;;;9183619;19;20089;-68
2022/05/11 15:55:37;;;;;;;8.07;1.90;;;25.10;46.70;;;;;;9183734;19;20021;-68
2022/05/11 15:58:45;;;;;;;6.57;1.65;;;25.10;46.70;;;;;;9185179;19;20034;-68
2022/05/11 16:01:50;;;;;;;9.85;2.00;;;25.10;46.90;;;;;;9183397;19;20491;-68
2022/05/11 16:04:56;;;;;;;16.77;1.98;;;25.10;46.80;;;;;;9180001;19;20025;-69
2022/05/11 16:08:01;;;;;;;11.90;2.70;;;25.00;46.60;;;;;;9183414;19;20018;-68
2022/05/11 16:11:08;;;;;;;5.68;1.88;;;25.00;47.10;;;;;;9183079;19;20018;-68
2022/05/11 16:14:17;;;;;;;6.78;1.67;;;25.00;46.70;;;;;;9183259;19;20011;-69
2022/05/11 16:20:56;;;;;;;8.57;1.52;;;25.00;46.90;;;;;;9179299;19;20499;-69
2022/05/11 16:24:08;;;;;;;10.68;1.88;;;25.00;47.10;;;;;;9183033;19;20018;-68
2022/05/11 16:27:13;;;;;;;8.73;1.88;;;25.00;47.00;;;;;;9183677;19;20353;-69
2022/05/11 16:30:21;;;;;;;9.77;1.90;;;25.00;47.00;;;;;;9182205;19;20025;-69
2022/05/11 16:33:29;;;;;;;5.32;1.77;;;24.90;47.30;;;;;;9184575;19;20022;-71
2022/05/11 16:36:34;;;;;;;7.35;2.03;;;24.90;47.20;;;;;;9182037;19;20029;-68
2022/05/11 16:39:39;;;;;;;4.57;1.88;;;24.80;47.00;;;;;;9183875;19;20010;-69
2022/05/11 16:42:44;;;;;;;8.23;1.90;;;24.80;47.50;;;;;;9181111;19;20014;-69
2022/05/11 16:45:54;;;;;;;5.60;1.80;;;24.70;47.50;;;;;;9183098;19;20025;-69
2022/05/11 16:48:59;;;;;;;14.20;2.40;;;24.70;47.40;;;;;;9181643;19;20473;-68
2022/05/11 16:52:04;;;;;;;11.65;2.40;;;24.70;47.60;;;;;;9181947;19;20014;-69
2022/05/11 16:55:20;;;;;;;16.10;2.05;;;24.70;47.50;;;;;;9182424;19;20356;-69
2022/05/11 16:58:25;;;;;;;12.07;2.60;;;24.60;47.60;;;;;;9184485;19;20494;-69
2022/05/11 17:01:36;;;;;;;7.03;1.85;;;24.50;47.70;;;;;;9180663;19;20034;-67
2022/05/11 17:04:41;;;;;;;10.02;2.25;;;24.50;47.60;;;;;;9181579;19;20022;-69
2022/05/11 17:07:47;;;;;;;10.88;2.50;;;24.50;47.80;;;;;;9182638;19;20025;-69
2022/05/11 17:11:05;;;;;;;8.10;1.95;;;24.40;47.70;;;;;;9183266;19;20475;-68
2022/05/11 17:14:10;;;;;;;15.02;2.00;;;24.40;48.10;;;;;;9181371;19;20024;-68
2022/05/11 17:17:21;;;;;;;12.20;2.13;;;24.30;47.70;;;;;;9178573;19;20021;-70
2022/05/11 17:20:29;;;;;;;12.52;2.35;;;24.20;47.90;;;;;;9180388;19;20349;-69
2022/05/11 17:23:35;;;;;;;13.30;2.00;;;24.30;48.20;;;;;;9182025;19;20352;-70
2022/05/11 17:26:43;;;;;;;16.65;2.13;;;24.20;48.20;;;;;;9181484;19;20021;-68
2022/05/11 17:29:49;;;;;;;12.65;2.25;;;24.20;48.10;;;;;;9181072;19;20015;-68
2022/05/11 17:32:56;;;;;;;9.63;2.00;;;24.10;48.30;;;;;;9180442;19;20502;-69